createdAt,value
2023-04-09T00:01:03.522Z,74.20
2023-04-09T00:03:39.914Z,74.22
2023-04-09T00:06:04.585Z,74.32
2023-04-09T00:08:31.322Z,74.28
2023-04-09T00:10:55.053Z,74.29
2023-04-09T00:13:25.472Z,74.49
2023-04-09T00:16:00.044Z,74.65
2023-04-09T00:18:23.689Z,74.70
2023-04-09T00:20:47.253Z,74.82
2023-04-09T00:23:12.868Z,74.84
2023-04-09T00:25:37.277Z,74.73
2023-04-09T00:28:03.832Z,74.71
2023-04-09T00:30:30.810Z,74.65
2023-04-09T00:32:57.027Z,74.67
2023-04-09T00:35:20.889Z,74.79
2023-04-09T00:37:44.795Z,74.71
2023-04-09T00:40:15.672Z,74.74
2023-04-09T00:42:39.279Z,74.77
2023-04-09T00:45:13.995Z,74.84
2023-04-09T00:47:37.679Z,74.88
2023-04-09T00:50:02.611Z,74.89
2023-04-09T00:52:27.047Z,74.94
2023-04-09T00:54:52.094Z,75.23
2023-04-09T00:57:15.761Z,75.23
2023-04-09T01:00:00.618Z,75.30
2023-04-09T01:02:29.558Z,75.40
2023-04-09T01:04:52.682Z,75.41
2023-04-09T01:07:31.853Z,75.60
2023-04-09T01:10:06.731Z,75.70
2023-04-09T01:12:38.367Z,75.77
2023-04-09T01:15:08.551Z,75.96
2023-04-09T01:17:48.905Z,76.05
2023-04-09T01:20:22.264Z,76.18
2023-04-09T01:22:57.627Z,76.14
2023-04-09T01:25:37.519Z,76.12
2023-04-09T01:28:19.049Z,76.15
2023-04-09T01:30:46.692Z,76.20
2023-04-09T01:33:11.906Z,76.32
2023-04-09T01:35:35.785Z,76.34
2023-04-09T01:38:00.581Z,76.28
2023-04-09T01:40:25.028Z,76.20
2023-04-09T01:42:49.886Z,76.16
2023-04-09T01:45:14.658Z,76.22
2023-04-09T01:47:39.247Z,76.33
2023-04-09T01:50:03.584Z,76.32
2023-04-09T01:52:28.220Z,76.35
2023-04-09T01:54:51.627Z,76.35
2023-04-09T01:57:15.286Z,76.34
2023-04-09T01:59:38.815Z,76.25
2023-04-09T02:02:09.380Z,76.26
2023-04-09T02:04:35.427Z,76.15
2023-04-09T02:07:04.821Z,76.09
2023-04-09T02:09:53.013Z,76.13
2023-04-09T02:12:18.687Z,76.17
2023-04-09T02:14:45.654Z,76.47
2023-04-09T02:17:13.781Z,76.49
2023-04-09T02:19:42.595Z,76.49
2023-04-09T02:22:06.165Z,76.55
2023-04-09T02:24:30.065Z,76.75
2023-04-09T02:26:53.595Z,76.85
2023-04-09T02:29:17.162Z,76.97
2023-04-09T02:31:41.564Z,77.07
2023-04-09T02:34:05.400Z,77.06
2023-04-09T02:36:31.959Z,77.08
2023-04-09T02:38:55.931Z,77.17
2023-04-09T02:41:19.464Z,77.23
2023-04-09T02:43:46.142Z,77.21
2023-04-09T02:46:13.194Z,77.17
2023-04-09T02:48:37.370Z,77.18
2023-04-09T02:51:04.326Z,77.20
2023-04-09T02:53:28.031Z,77.16
2023-04-09T02:55:51.491Z,77.17
2023-04-09T02:58:17.674Z,77.13
2023-04-09T03:00:41.787Z,77.18
2023-04-09T03:03:06.157Z,77.19
2023-04-09T03:05:30.384Z,77.15
2023-04-09T03:07:54.915Z,77.35
2023-04-09T03:10:19.005Z,77.28
2023-04-09T03:12:43.958Z,77.32
2023-04-09T03:15:09.722Z,77.46
2023-04-09T03:17:33.639Z,77.61
2023-04-09T03:20:00.369Z,77.69
2023-04-09T03:22:30.660Z,77.74
2023-04-09T03:24:54.528Z,77.86
2023-04-09T03:27:18.394Z,77.78
2023-04-09T03:30:02.987Z,77.81
2023-04-09T03:32:33.384Z,77.73
2023-04-09T03:34:57.456Z,77.69
2023-04-09T03:37:21.738Z,77.70
2023-04-09T03:39:45.824Z,77.58
2023-04-09T03:42:12.559Z,77.48
2023-04-09T03:44:55.218Z,77.51
2023-04-09T03:47:42.283Z,77.41
2023-04-09T03:50:08.606Z,77.47
2023-04-09T03:52:42.205Z,77.45
2023-04-09T03:55:11.148Z,77.60
2023-04-09T03:57:35.207Z,77.81
2023-04-09T04:00:01.393Z,78.02
2023-04-09T04:02:37.069Z,78.04
2023-04-09T04:05:03.474Z,78.20
2023-04-09T04:07:33.928Z,78.27
2023-04-09T04:10:07.500Z,78.42
2023-04-09T04:12:32.542Z,78.36
2023-04-09T04:15:01.781Z,78.65
2023-04-09T04:17:48.004Z,78.48
2023-04-09T04:20:20.927Z,78.44
2023-04-09T04:22:52.567Z,78.56
2023-04-09T04:25:18.114Z,78.83
2023-04-09T04:27:43.581Z,78.78
2023-04-09T04:30:12.016Z,78.18
2023-04-09T04:33:08.305Z,77.49
2023-04-09T04:35:52.576Z,77.32
2023-04-09T04:38:28.107Z,77.24
2023-04-09T04:41:00.694Z,77.28
2023-04-09T04:43:28.252Z,77.22
2023-04-09T04:45:54.308Z,77.33
2023-04-09T04:48:19.774Z,77.49
2023-04-09T04:50:44.981Z,77.61
2023-04-09T04:53:12.850Z,77.54
2023-04-09T04:55:42.143Z,77.54
2023-04-09T04:58:07.455Z,77.53
2023-04-09T05:00:38.710Z,77.51
2023-04-09T05:03:02.882Z,77.23
2023-04-09T05:05:43.184Z,77.29
2023-04-09T05:08:15.256Z,77.28
2023-04-09T05:10:42.661Z,77.44
2023-04-09T05:13:06.496Z,77.24
2023-04-09T05:15:42.181Z,77.38
2023-04-09T05:18:09.646Z,77.38
2023-04-09T05:20:33.924Z,77.33
2023-04-09T05:23:20.991Z,77.41
2023-04-09T05:26:05.398Z,77.36
2023-04-09T05:28:49.879Z,77.40
2023-04-09T05:31:35.648Z,77.38
2023-04-09T05:34:04.360Z,77.37
2023-04-09T05:36:36.063Z,77.19
2023-04-09T05:38:59.746Z,77.00
2023-04-09T05:41:44.384Z,76.71
2023-04-09T05:44:36.845Z,76.39
2023-04-09T05:47:04.982Z,76.09
2023-04-09T05:49:55.535Z,75.57
2023-04-09T05:52:22.756Z,75.25
2023-04-09T05:54:49.736Z,75.02
2023-04-09T05:57:33.967Z,74.62
2023-04-09T06:00:09.076Z,74.36
2023-04-09T06:02:42.155Z,73.83
2023-04-09T06:05:07.058Z,73.50
2023-04-09T06:07:30.468Z,73.20
2023-04-09T06:09:56.743Z,72.55
2023-04-09T06:12:20.202Z,72.35
2023-04-09T06:14:43.780Z,72.02
2023-04-09T06:17:08.316Z,72.06
2023-04-09T06:19:40.622Z,71.75
2023-04-09T06:22:12.756Z,71.52
2023-04-09T06:24:56.834Z,71.57
2023-04-09T06:27:21.800Z,71.96
2023-04-09T06:29:45.275Z,72.17
2023-04-09T06:32:08.831Z,71.96
2023-04-09T06:34:32.605Z,71.46
2023-04-09T06:36:56.372Z,71.13
2023-04-09T06:39:33.998Z,70.78
2023-04-09T06:41:57.452Z,70.58
2023-04-09T06:44:29.919Z,70.15
2023-04-09T06:46:56.563Z,69.62
2023-04-09T06:49:22.977Z,69.63
2023-04-09T06:51:46.440Z,69.53
2023-04-09T06:54:10.330Z,69.02
2023-04-09T06:56:34.103Z,69.25
2023-04-09T06:58:57.864Z,69.14
2023-04-09T07:01:21.667Z,68.56
2023-04-09T07:03:46.300Z,68.09
2023-04-09T07:06:10.093Z,67.55
2023-04-09T07:08:36.455Z,67.40
2023-04-09T07:10:59.891Z,67.27
2023-04-09T07:13:23.557Z,66.79
2023-04-09T07:15:47.707Z,66.51
2023-04-09T07:18:11.509Z,66.44
2023-04-09T07:20:35.081Z,66.08
2023-04-09T07:22:58.948Z,65.95
2023-04-09T07:25:22.616Z,65.69
2023-04-09T07:27:46.281Z,65.22
2023-04-09T07:30:11.103Z,64.72
2023-04-09T07:32:34.555Z,64.14
2023-04-09T07:34:58.943Z,63.73
2023-04-09T07:37:22.707Z,62.89
2023-04-09T07:39:46.906Z,62.41
2023-04-09T07:42:10.330Z,61.96
2023-04-09T07:44:38.423Z,61.31
2023-04-09T07:47:02.200Z,61.01
2023-04-09T07:49:28.311Z,60.53
2023-04-09T07:51:52.032Z,59.80
2023-04-09T07:54:15.736Z,59.58
2023-04-09T07:56:39.879Z,59.31
2023-04-09T07:59:03.770Z,58.83
2023-04-09T08:01:29.778Z,58.86
2023-04-09T08:03:55.576Z,58.60
2023-04-09T08:06:19.481Z,58.18
2023-04-09T08:08:44.391Z,58.14
2023-04-09T08:11:07.712Z,58.05
2023-04-09T08:13:31.940Z,58.16
2023-04-09T08:15:55.427Z,58.39
2023-04-09T08:18:18.962Z,58.30
2023-04-09T08:20:44.617Z,57.94
2023-04-09T08:23:08.179Z,57.23
2023-04-09T08:25:32.155Z,57.14
2023-04-09T08:27:56.561Z,56.85
2023-04-09T08:30:20.548Z,56.54
2023-04-09T08:32:45.012Z,56.33
2023-04-09T08:35:10.551Z,56.06
2023-04-09T08:37:33.985Z,55.64
2023-04-09T08:39:57.460Z,55.36
2023-04-09T08:42:22.193Z,54.77
2023-04-09T08:44:46.207Z,54.71
2023-04-09T08:47:11.128Z,55.05
2023-04-09T08:49:35.307Z,55.43
2023-04-09T08:51:58.858Z,55.69
2023-04-09T08:54:22.937Z,55.79
2023-04-09T08:56:46.835Z,55.45
2023-04-09T08:59:18.257Z,55.32
2023-04-09T09:01:41.888Z,55.23
2023-04-09T09:04:07.911Z,55.29
2023-04-09T09:06:34.942Z,55.38
2023-04-09T09:09:04.094Z,55.53
2023-04-09T09:11:29.806Z,55.66
2023-04-09T09:13:58.871Z,55.73
2023-04-09T09:16:22.257Z,55.78
2023-04-09T09:18:46.407Z,55.76
2023-04-09T09:21:14.128Z,55.48
2023-04-09T09:23:37.795Z,55.43
2023-04-09T09:26:13.082Z,55.56
2023-04-09T09:28:36.542Z,55.80
2023-04-09T09:31:09.931Z,55.74
2023-04-09T09:33:34.800Z,55.73
2023-04-09T09:36:08.857Z,55.28
2023-04-09T09:38:33.118Z,54.79
2023-04-09T09:40:59.361Z,54.43
2023-04-09T09:43:23.704Z,54.19
2023-04-09T09:45:48.643Z,53.84
2023-04-09T09:48:12.788Z,53.20
2023-04-09T09:50:37.658Z,52.99
2023-04-09T09:53:05.126Z,52.86
2023-04-09T09:55:31.267Z,52.39
2023-04-09T09:57:56.762Z,51.69
2023-04-09T10:00:24.794Z,50.88
2023-04-09T10:02:57.092Z,50.77
2023-04-09T10:05:26.171Z,50.33
2023-04-09T10:07:49.845Z,50.26
2023-04-09T10:10:13.706Z,49.95
2023-04-09T10:12:41.113Z,50.29
2023-04-09T10:15:06.618Z,50.44
2023-04-09T10:17:30.791Z,50.13
2023-04-09T10:20:01.212Z,50.69
2023-04-09T10:22:29.639Z,50.94
2023-04-09T10:24:55.204Z,51.48
2023-04-09T10:27:19.516Z,51.44
2023-04-09T10:29:47.456Z,51.13
2023-04-09T10:32:11.596Z,51.14
2023-04-09T10:34:38.635Z,51.09
2023-04-09T10:37:02.346Z,51.22
2023-04-09T10:39:27.940Z,50.45
2023-04-09T10:41:53.480Z,48.21
2023-04-09T10:44:24.341Z,47.45
2023-04-09T10:46:48.820Z,46.86
2023-04-09T10:49:15.761Z,45.64
2023-04-09T10:51:40.544Z,45.27
2023-04-09T10:54:04.425Z,44.58
2023-04-09T10:56:27.992Z,44.28
2023-04-09T10:58:51.952Z,44.59
2023-04-09T11:01:22.426Z,44.85
2023-04-09T11:04:06.131Z,45.01
2023-04-09T11:06:31.789Z,45.14
2023-04-09T11:09:01.980Z,45.02
2023-04-09T11:11:28.705Z,45.23
2023-04-09T11:13:58.055Z,45.71
2023-04-09T11:16:25.485Z,45.29
2023-04-09T11:18:50.518Z,45.54
2023-04-09T11:21:15.914Z,45.87
2023-04-09T11:23:39.536Z,46.25
2023-04-09T11:26:02.970Z,46.45
2023-04-09T11:28:26.974Z,46.54
2023-04-09T11:30:52.160Z,46.58
2023-04-09T11:33:18.244Z,46.42
2023-04-09T11:35:44.273Z,46.68
2023-04-09T11:38:08.615Z,46.63
2023-04-09T11:40:32.400Z,46.84
2023-04-09T11:42:56.597Z,46.87
2023-04-09T11:45:22.316Z,46.89
2023-04-09T11:47:46.774Z,46.75
2023-04-09T11:50:12.869Z,46.31
2023-04-09T11:52:37.282Z,46.47
2023-04-09T11:55:01.427Z,45.76
2023-04-09T11:57:37.800Z,45.49
2023-04-09T12:00:08.304Z,45.14
2023-04-09T12:02:32.633Z,44.37
2023-04-09T12:05:03.986Z,43.74
2023-04-09T12:07:33.381Z,43.88
2023-04-09T12:09:57.302Z,43.71
2023-04-09T12:12:25.339Z,43.17
2023-04-09T12:14:51.194Z,42.78
2023-04-09T12:17:14.763Z,42.80
2023-04-09T12:19:38.648Z,42.42
2023-04-09T12:22:02.785Z,42.33
2023-04-09T12:24:28.127Z,41.73
2023-04-09T12:26:52.405Z,40.78
2023-04-09T12:29:17.397Z,40.39
2023-04-09T12:31:40.881Z,40.32
2023-04-09T12:34:04.980Z,40.25
2023-04-09T12:36:29.297Z,39.79
2023-04-09T12:38:52.912Z,40.24
2023-04-09T12:41:17.065Z,40.43
2023-04-09T12:43:43.811Z,40.44
2023-04-09T12:46:07.946Z,40.17
2023-04-09T12:48:32.502Z,40.63
2023-04-09T12:50:55.912Z,40.60
2023-04-09T12:53:19.317Z,40.38
2023-04-09T12:55:43.259Z,40.73
2023-04-09T12:58:06.826Z,40.96
2023-04-09T13:00:30.508Z,41.11
2023-04-09T13:02:55.203Z,40.67
2023-04-09T13:05:18.627Z,40.65
2023-04-09T13:07:43.305Z,40.58
2023-04-09T13:10:09.170Z,40.43
2023-04-09T13:12:32.550Z,39.64
2023-04-09T13:14:56.186Z,39.60
2023-04-09T13:17:20.105Z,39.57
2023-04-09T13:19:43.634Z,40.00
2023-04-09T13:22:08.317Z,40.57
2023-04-09T13:24:32.151Z,41.23
2023-04-09T13:26:55.584Z,42.75
2023-04-09T13:29:18.965Z,44.94
2023-04-09T13:31:43.099Z,47.07
2023-04-09T13:34:07.032Z,48.33
2023-04-09T13:36:30.985Z,49.35
2023-04-09T13:38:55.661Z,50.54
2023-04-09T13:41:19.320Z,51.46
2023-04-09T13:43:44.462Z,52.09
2023-04-09T13:46:10.901Z,52.56
2023-04-09T13:48:34.446Z,53.52
2023-04-09T13:50:58.382Z,54.28
2023-04-09T13:53:23.936Z,54.67
2023-04-09T13:55:47.390Z,55.27
2023-04-09T13:58:10.935Z,55.25
2023-04-09T14:00:35.482Z,54.84
2023-04-09T14:02:59.348Z,54.81
2023-04-09T14:05:22.854Z,54.92
2023-04-09T14:07:49.836Z,54.82
2023-04-09T14:10:13.322Z,54.49
2023-04-09T14:12:36.755Z,54.50
2023-04-09T14:15:01.118Z,55.24
2023-04-09T14:17:24.796Z,55.58
2023-04-09T14:19:48.348Z,55.96
2023-04-09T14:22:12.154Z,56.25
2023-04-09T14:24:39.162Z,56.58
2023-04-09T14:27:03.041Z,56.61
2023-04-09T14:29:26.916Z,56.79
2023-04-09T14:31:51.192Z,56.42
2023-04-09T14:34:15.069Z,56.52
2023-04-09T14:36:38.736Z,56.25
2023-04-09T14:39:02.211Z,56.35
2023-04-09T14:41:26.581Z,56.40
2023-04-09T14:43:50.291Z,56.38
2023-04-09T14:46:22.874Z,56.43
2023-04-09T14:48:46.500Z,56.63
2023-04-09T14:51:11.501Z,56.68
2023-04-09T14:53:38.195Z,56.32
2023-04-09T14:56:06.232Z,56.31
2023-04-09T14:58:29.786Z,56.47
2023-04-09T15:00:54.293Z,56.42
2023-04-09T15:03:18.424Z,56.06
2023-04-09T15:05:42.426Z,55.81
2023-04-09T15:08:06.194Z,55.77
2023-04-09T15:10:30.290Z,56.06
2023-04-09T15:12:53.856Z,56.06
2023-04-09T15:15:17.561Z,56.58
2023-04-09T15:17:41.398Z,56.76
2023-04-09T15:20:15.515Z,56.88
2023-04-09T15:22:50.945Z,56.82
2023-04-09T15:25:17.383Z,56.80
2023-04-09T15:27:41.021Z,56.97
2023-04-09T15:30:09.170Z,57.13
2023-04-09T15:32:33.402Z,57.09
2023-04-09T15:34:57.074Z,57.12
2023-04-09T15:37:23.722Z,57.12
2023-04-09T15:39:47.474Z,57.02
2023-04-09T15:42:19.611Z,57.19
2023-04-09T15:44:43.261Z,57.68
2023-04-09T15:47:07.178Z,58.02
2023-04-09T15:49:30.640Z,58.01
2023-04-09T15:52:14.866Z,57.74
2023-04-09T15:54:38.300Z,57.71
2023-04-09T15:57:01.905Z,57.47
2023-04-09T15:59:29.042Z,57.39
2023-04-09T16:02:04.065Z,57.09
2023-04-09T16:04:31.116Z,57.12
2023-04-09T16:06:55.716Z,57.22
2023-04-09T16:09:21.267Z,57.25
2023-04-09T16:11:45.902Z,56.92
2023-04-09T16:14:09.433Z,56.64
2023-04-09T16:16:32.956Z,56.29
2023-04-09T16:18:57.064Z,56.15
2023-04-09T16:21:20.870Z,55.83
2023-04-09T16:23:53.423Z,55.68
2023-04-09T16:26:37.868Z,55.52
2023-04-09T16:29:03.569Z,55.43
2023-04-09T16:31:27.227Z,55.69
2023-04-09T16:33:51.124Z,55.74
2023-04-09T16:36:14.887Z,55.77
2023-04-09T16:38:38.471Z,55.88
2023-04-09T16:41:02.338Z,55.98
2023-04-09T16:43:26.026Z,56.16
2023-04-09T16:45:49.538Z,56.18
2023-04-09T16:48:16.956Z,56.33
2023-04-09T16:50:40.708Z,56.64
2023-04-09T16:53:04.380Z,56.84
2023-04-09T16:55:28.170Z,57.02
2023-04-09T16:57:51.597Z,57.33
2023-04-09T17:00:17.521Z,57.49
2023-04-09T17:02:42.368Z,57.64
2023-04-09T17:05:08.259Z,57.98
2023-04-09T17:07:32.354Z,58.18
2023-04-09T17:09:56.630Z,58.47
2023-04-09T17:12:24.055Z,58.54
2023-04-09T17:14:47.517Z,58.65
2023-04-09T17:17:11.622Z,59.01
2023-04-09T17:19:36.232Z,59.44
2023-04-09T17:22:00.165Z,59.64
2023-04-09T17:24:24.824Z,59.90
2023-04-09T17:27:10.137Z,60.28
2023-04-09T17:29:34.191Z,60.57
2023-04-09T17:31:58.286Z,60.75
2023-04-09T17:34:21.814Z,61.11
2023-04-09T17:36:49.312Z,61.29
2023-04-09T17:39:12.693Z,61.88
2023-04-09T17:41:39.227Z,62.10
2023-04-09T17:44:03.362Z,62.45
2023-04-09T17:46:27.075Z,62.48
2023-04-09T17:48:54.208Z,62.83
2023-04-09T17:51:21.368Z,63.28
2023-04-09T17:53:47.637Z,63.48
2023-04-09T17:56:16.249Z,63.85
2023-04-09T17:58:43.484Z,64.08
2023-04-09T18:01:15.965Z,64.39
2023-04-09T18:03:41.479Z,64.49
2023-04-09T18:06:06.896Z,64.80
2023-04-09T18:08:30.589Z,65.06
2023-04-09T18:11:08.925Z,65.31
2023-04-09T18:13:38.083Z,65.57
2023-04-09T18:16:01.587Z,65.68
2023-04-09T18:18:25.258Z,65.85
2023-04-09T18:20:53.986Z,66.04
2023-04-09T18:23:17.677Z,66.17
2023-04-09T18:25:43.353Z,66.51
2023-04-09T18:28:07.551Z,66.49
2023-04-09T18:30:53.317Z,66.57
2023-04-09T18:33:17.082Z,66.64
2023-04-09T18:35:49.724Z,66.78
2023-04-09T18:38:13.392Z,67.12
2023-04-09T18:40:42.535Z,67.39
2023-04-09T18:43:06.258Z,67.69
2023-04-09T18:45:29.772Z,68.15
2023-04-09T18:47:53.690Z,68.29
2023-04-09T18:50:18.200Z,68.83
2023-04-09T18:52:41.826Z,69.22
2023-04-09T18:55:11.263Z,69.72
2023-04-09T18:57:37.078Z,70.32
2023-04-09T19:00:02.802Z,70.72
2023-04-09T19:02:27.209Z,71.18
2023-04-09T19:04:51.546Z,71.58
2023-04-09T19:07:15.339Z,71.84
2023-04-09T19:09:38.897Z,72.15
2023-04-09T19:12:02.455Z,72.03
2023-04-09T19:14:28.443Z,72.16
2023-04-09T19:16:52.213Z,72.05
2023-04-09T19:19:15.765Z,71.81
2023-04-09T19:21:41.405Z,71.57
2023-04-09T19:24:08.534Z,71.59
2023-04-09T19:26:52.852Z,71.64
2023-04-09T19:29:16.251Z,71.72
2023-04-09T19:31:40.785Z,71.87
2023-04-09T19:34:05.463Z,71.95
2023-04-09T19:36:30.909Z,71.94
2023-04-09T19:38:54.718Z,72.09
2023-04-09T19:41:18.370Z,71.94
2023-04-09T19:43:43.137Z,72.10
2023-04-09T19:46:08.119Z,72.03
2023-04-09T19:48:31.724Z,71.79
2023-04-09T19:50:55.609Z,71.89
2023-04-09T19:53:28.460Z,71.92
2023-04-09T19:55:51.849Z,71.84
2023-04-09T19:58:15.909Z,71.98
2023-04-09T20:00:39.335Z,72.04
2023-04-09T20:03:05.046Z,72.16
2023-04-09T20:05:29.379Z,72.27
2023-04-09T20:07:52.968Z,72.39
2023-04-09T20:10:16.815Z,72.43
2023-04-09T20:12:40.708Z,72.51
2023-04-09T20:15:07.946Z,72.78
2023-04-09T20:17:32.862Z,72.99
2023-04-09T20:19:57.006Z,73.16
2023-04-09T20:22:20.515Z,73.30
2023-04-09T20:24:44.111Z,73.50
2023-04-09T20:27:08.218Z,73.77
2023-04-09T20:29:34.935Z,73.77
2023-04-09T20:32:07.954Z,73.88
2023-04-09T20:34:32.431Z,73.99
2023-04-09T20:36:56.343Z,74.10
2023-04-09T20:39:24.442Z,74.15
2023-04-09T20:41:51.221Z,74.27
2023-04-09T20:44:35.506Z,74.43
2023-04-09T20:47:07.044Z,74.28
2023-04-09T20:49:30.583Z,74.48
2023-04-09T20:51:54.570Z,74.52
2023-04-09T20:54:22.704Z,74.66
2023-04-09T20:56:46.151Z,74.65
2023-04-09T20:59:10.967Z,74.75
2023-04-09T21:01:35.705Z,74.80
2023-04-09T21:03:59.539Z,74.87
2023-04-09T21:06:26.593Z,74.97
2023-04-09T21:08:55.226Z,74.99
2023-04-09T21:11:18.648Z,75.09
2023-04-09T21:13:53.744Z,75.10
2023-04-09T21:16:18.640Z,75.26
2023-04-09T21:18:42.357Z,75.31
2023-04-09T21:21:08.063Z,75.35
2023-04-09T21:23:34.077Z,75.46
2023-04-09T21:25:57.678Z,75.48
2023-04-09T21:28:21.300Z,75.57
2023-04-09T21:30:45.347Z,75.61
2023-04-09T21:33:09.498Z,75.66
2023-04-09T21:35:34.152Z,75.88
2023-04-09T21:37:58.177Z,75.70
2023-04-09T21:40:22.936Z,75.87
2023-04-09T21:42:46.535Z,75.95
2023-04-09T21:45:11.862Z,76.06
2023-04-09T21:47:35.666Z,76.14
2023-04-09T21:49:59.356Z,76.15
2023-04-09T21:52:23.157Z,76.33
2023-04-09T21:54:47.147Z,76.47
2023-04-09T21:57:10.881Z,76.53
2023-04-09T21:59:36.002Z,76.54
2023-04-09T22:01:59.929Z,76.57
2023-04-09T22:04:23.460Z,76.70
2023-04-09T22:06:47.192Z,76.84
2023-04-09T22:09:11.093Z,76.90
2023-04-09T22:11:40.538Z,76.96
2023-04-09T22:14:04.261Z,77.14
2023-04-09T22:16:28.229Z,77.26
2023-04-09T22:18:52.040Z,77.30
2023-04-09T22:21:16.924Z,77.40
2023-04-09T22:23:40.411Z,77.45
2023-04-09T22:26:04.163Z,77.61
2023-04-09T22:28:28.807Z,77.73
2023-04-09T22:30:53.181Z,77.94
2023-04-09T22:33:24.769Z,77.90
2023-04-09T22:35:49.296Z,78.13
2023-04-09T22:38:13.047Z,78.44
2023-04-09T22:40:36.747Z,78.47
2023-04-09T22:43:00.594Z,78.58
2023-04-09T22:45:27.169Z,78.74
2023-04-09T22:47:53.721Z,78.79
2023-04-09T22:50:17.487Z,78.83
2023-04-09T22:52:43.646Z,78.93
2023-04-09T22:55:10.330Z,79.08
2023-04-09T22:57:34.003Z,79.27
2023-04-09T23:00:01.197Z,79.45
2023-04-09T23:02:25.619Z,79.74
2023-04-09T23:04:52.187Z,79.88
2023-04-09T23:07:15.887Z,79.98
2023-04-09T23:09:48.876Z,80.14
2023-04-09T23:12:12.540Z,80.29
2023-04-09T23:14:38.673Z,80.41
2023-04-09T23:17:05.521Z,80.47
2023-04-09T23:19:29.104Z,80.62
2023-04-09T23:21:52.858Z,80.61
2023-04-09T23:24:36.933Z,80.76
2023-04-09T23:27:03.355Z,80.86
2023-04-09T23:29:26.805Z,80.91
2023-04-09T23:31:50.487Z,81.01
2023-04-09T23:34:14.375Z,81.15
2023-04-09T23:36:40.053Z,81.14
2023-04-09T23:39:04.126Z,81.33
2023-04-09T23:41:30.047Z,81.40
2023-04-09T23:43:53.665Z,81.33
2023-04-09T23:46:20.999Z,81.49
2023-04-09T23:48:46.482Z,81.57
2023-04-09T23:51:16.193Z,81.66
2023-04-09T23:53:42.936Z,81.79
2023-04-09T23:56:27.778Z,81.85
2023-04-09T23:58:59.159Z,81.97
